createdAt,value
2022-12-08T00:00:02.285Z,84.76
2022-12-08T00:05:36.662Z,84.81
2022-12-08T00:10:49.686Z,84.68
2022-12-08T00:16:02.689Z,84.81
2022-12-08T00:21:10.005Z,84.71
2022-12-08T00:26:17.175Z,84.78
2022-12-08T00:31:24.319Z,84.70
2022-12-08T00:36:31.957Z,84.71
2022-12-08T00:41:56.578Z,84.52
2022-12-08T00:47:03.683Z,84.53
2022-12-08T00:52:12.782Z,84.50
2022-12-08T00:57:20.363Z,84.71
2022-12-08T01:02:27.521Z,84.64
2022-12-08T01:07:34.786Z,84.65
2022-12-08T01:12:43.203Z,84.56
2022-12-08T01:17:50.193Z,84.55
2022-12-08T01:22:57.336Z,84.67
2022-12-08T01:28:04.397Z,84.71
2022-12-08T01:33:11.477Z,84.57
2022-12-08T01:38:18.570Z,84.56
2022-12-08T01:43:26.004Z,84.64
2022-12-08T01:48:33.173Z,84.56
2022-12-08T01:53:41.597Z,84.55
2022-12-08T01:58:53.318Z,84.52
2022-12-08T02:04:02.681Z,84.51
2022-12-08T02:09:10.496Z,84.52
2022-12-08T02:14:17.792Z,84.50
2022-12-08T02:19:52.927Z,84.57
2022-12-08T02:25:10.105Z,84.37
2022-12-08T02:30:23.390Z,84.37
2022-12-08T02:35:37.592Z,84.39
2022-12-08T02:40:54.013Z,84.22
2022-12-08T02:46:06.901Z,84.27
2022-12-08T02:51:13.992Z,84.30
2022-12-08T02:56:37.715Z,84.38
2022-12-08T03:02:11.484Z,84.26
2022-12-08T03:07:26.370Z,84.21
2022-12-08T03:12:39.369Z,84.17
2022-12-08T03:17:52.251Z,84.09
2022-12-08T03:23:03.629Z,84.09
2022-12-08T03:28:11.169Z,84.07
2022-12-08T03:33:24.923Z,84.04
2022-12-08T03:38:41.039Z,84.20
2022-12-08T03:43:48.600Z,83.91
2022-12-08T03:48:56.225Z,83.93
2022-12-08T03:54:03.301Z,83.97
2022-12-08T03:59:11.903Z,83.87
2022-12-08T04:04:19.175Z,83.71
2022-12-08T04:09:26.496Z,83.74
2022-12-08T04:14:33.566Z,83.82
2022-12-08T04:19:41.125Z,83.88
2022-12-08T04:24:48.132Z,83.83
2022-12-08T04:29:55.274Z,83.76
2022-12-08T04:35:02.339Z,83.69
2022-12-08T04:40:11.320Z,83.67
2022-12-08T04:45:19.014Z,83.82
2022-12-08T04:50:26.139Z,83.72
2022-12-08T04:55:33.210Z,83.65
2022-12-08T05:00:40.509Z,83.68
2022-12-08T05:05:48.069Z,83.61
2022-12-08T05:10:55.163Z,83.57
2022-12-08T05:16:07.887Z,83.68
2022-12-08T05:21:15.288Z,83.61
2022-12-08T05:26:22.379Z,83.68
2022-12-08T05:31:29.527Z,83.71
2022-12-08T05:36:36.658Z,83.59
2022-12-08T05:41:43.952Z,83.47
2022-12-08T05:46:51.189Z,83.46
2022-12-08T05:51:58.213Z,83.47
2022-12-08T05:57:05.343Z,83.57
2022-12-08T06:02:12.646Z,83.57
2022-12-08T06:07:19.858Z,83.38
2022-12-08T06:12:27.543Z,83.42
2022-12-08T06:17:34.772Z,83.34
2022-12-08T06:22:42.151Z,83.29
2022-12-08T06:27:49.545Z,83.31
2022-12-08T06:32:57.264Z,83.37
2022-12-08T06:38:07.425Z,83.22
2022-12-08T06:43:14.880Z,83.38
2022-12-08T06:48:22.570Z,83.45
2022-12-08T06:53:30.628Z,83.59
2022-12-08T06:58:38.063Z,83.57
2022-12-08T07:03:46.738Z,83.22
2022-12-08T07:08:54.846Z,83.17
2022-12-08T07:14:03.269Z,83.27
2022-12-08T07:19:10.686Z,83.15
2022-12-08T07:24:17.966Z,83.41
2022-12-08T07:29:26.454Z,83.56
2022-12-08T07:34:33.754Z,83.48
2022-12-08T07:39:40.886Z,83.30
2022-12-08T07:44:47.959Z,83.37
2022-12-08T07:49:55.099Z,83.42
2022-12-08T07:55:09.322Z,83.44
2022-12-08T08:00:20.680Z,83.35
2022-12-08T08:05:29.571Z,83.42
2022-12-08T08:10:36.850Z,83.25
2022-12-08T08:15:44.438Z,83.21
2022-12-08T08:20:52.423Z,83.18
2022-12-08T08:26:01.795Z,83.30
2022-12-08T08:31:09.105Z,83.28
2022-12-08T08:36:16.473Z,83.29
2022-12-08T08:41:23.521Z,83.40
2022-12-08T08:46:30.985Z,83.40
2022-12-08T08:51:38.459Z,83.52
2022-12-08T08:56:45.803Z,83.43
2022-12-08T09:01:53.055Z,83.35
2022-12-08T09:07:00.726Z,83.41
2022-12-08T09:12:10.571Z,83.34
2022-12-08T09:17:18.577Z,83.31
2022-12-08T09:22:26.173Z,83.53
2022-12-08T09:27:34.331Z,83.66
2022-12-08T09:32:41.761Z,83.54
2022-12-08T09:37:48.986Z,83.43
2022-12-08T09:43:01.961Z,83.60
2022-12-08T09:48:15.520Z,83.57
2022-12-08T09:53:30.599Z,83.66
2022-12-08T09:58:52.160Z,83.60
2022-12-08T10:03:59.554Z,83.64
2022-12-08T10:09:25.738Z,83.77
2022-12-08T10:14:41.979Z,83.83
2022-12-08T10:19:50.985Z,83.82
2022-12-08T10:25:01.902Z,83.75
2022-12-08T10:30:15.914Z,83.90
2022-12-08T10:35:25.430Z,83.96
2022-12-08T10:40:43.968Z,84.10
2022-12-08T10:45:53.275Z,84.11
2022-12-08T10:51:03.500Z,84.13
2022-12-08T10:56:17.975Z,84.05
2022-12-08T11:01:28.649Z,84.36
2022-12-08T11:06:38.990Z,84.34
2022-12-08T11:11:51.859Z,84.28
2022-12-08T11:17:05.756Z,84.29
2022-12-08T11:22:26.590Z,84.32
2022-12-08T11:27:36.838Z,84.55
2022-12-08T11:32:46.733Z,84.41
2022-12-08T11:38:03.097Z,84.49
2022-12-08T11:43:28.940Z,84.47
2022-12-08T11:48:40.116Z,84.56
2022-12-08T11:53:54.905Z,84.62
2022-12-08T11:59:20.574Z,84.74
2022-12-08T12:04:34.610Z,84.58
2022-12-08T12:10:19.927Z,84.64
2022-12-08T12:16:18.597Z,84.82
2022-12-08T12:21:32.764Z,84.78
2022-12-08T12:26:50.617Z,84.83
2022-12-08T12:32:06.666Z,84.74
2022-12-08T12:37:22.256Z,84.73
2022-12-08T12:42:45.270Z,84.70
2022-12-08T12:49:06.595Z,84.67
2022-12-08T12:54:27.350Z,84.71
2022-12-08T12:59:51.571Z,84.79
2022-12-08T13:05:04.857Z,84.81
2022-12-08T13:10:22.996Z,84.70
2022-12-08T13:15:44.121Z,84.63
2022-12-08T13:20:56.329Z,84.75
2022-12-08T13:26:27.286Z,84.76
2022-12-08T13:31:48.287Z,84.78
2022-12-08T13:37:09.408Z,84.79
2022-12-08T13:42:23.131Z,84.69
2022-12-08T13:47:59.596Z,84.93
2022-12-08T13:58:43.498Z,84.64
2022-12-08T14:04:28.374Z,84.64
2022-12-08T14:09:24.567Z,84.67
2022-12-08T14:15:01.313Z,84.75
2022-12-08T14:20:03.299Z,84.60
2022-12-08T14:25:17.009Z,84.52
2022-12-08T14:30:30.690Z,84.49
2022-12-08T14:35:40.166Z,84.64
2022-12-08T14:40:48.877Z,84.68
2022-12-08T14:46:00.301Z,84.69
2022-12-08T14:51:15.371Z,84.61
2022-12-08T14:56:26.045Z,84.76
2022-12-08T15:01:34.464Z,84.85
2022-12-08T15:06:52.399Z,84.99
2022-12-08T15:12:05.627Z,84.94
2022-12-08T15:17:34.405Z,84.89
2022-12-08T15:22:41.696Z,84.60
2022-12-08T15:27:50.770Z,84.56
2022-12-08T15:32:58.028Z,84.54
2022-12-08T15:38:05.119Z,84.71
2022-12-08T15:43:14.033Z,84.85
2022-12-08T15:48:23.159Z,84.77
2022-12-08T15:53:30.309Z,84.80
2022-12-08T15:58:56.057Z,84.89
2022-12-08T16:09:34.818Z,85.04
2022-12-08T16:20:18.520Z,85.08
2022-12-08T16:25:46.220Z,84.84
2022-12-08T16:30:58.975Z,84.97
2022-12-08T16:36:05.314Z,84.91
2022-12-08T16:41:36.829Z,84.87
2022-12-08T16:46:44.138Z,84.97
2022-12-08T16:51:58.442Z,85.06
2022-12-08T16:57:05.729Z,84.95
2022-12-08T17:02:16.775Z,85.00
2022-12-08T17:07:43.852Z,85.05
2022-12-08T17:12:51.713Z,85.00
2022-12-08T17:17:59.143Z,84.96
2022-12-08T17:23:06.489Z,85.09
2022-12-08T17:28:22.476Z,85.09
2022-12-08T17:33:41.240Z,85.02
2022-12-08T17:38:48.286Z,85.14
2022-12-08T17:43:55.359Z,85.12
2022-12-08T17:49:02.421Z,85.03
2022-12-08T17:54:09.479Z,85.08
2022-12-08T17:59:17.148Z,85.09
2022-12-08T18:04:24.690Z,85.16
2022-12-08T18:09:32.934Z,85.03
2022-12-08T18:14:40.022Z,85.14
2022-12-08T18:19:47.167Z,85.22
2022-12-08T18:24:54.482Z,85.10
2022-12-08T18:30:02.978Z,85.33
2022-12-08T18:35:11.792Z,85.10
2022-12-08T18:40:20.691Z,85.15
2022-12-08T18:45:27.853Z,85.15
2022-12-08T18:50:34.986Z,85.19
2022-12-08T18:55:42.051Z,85.15
2022-12-08T19:00:49.148Z,85.16
2022-12-08T19:06:07.123Z,85.35
2022-12-08T19:11:22.770Z,85.50
2022-12-08T19:16:30.046Z,85.41
2022-12-08T19:21:43.019Z,85.16
2022-12-08T19:26:51.885Z,85.09
2022-12-08T19:32:00.419Z,85.12
2022-12-08T19:37:09.146Z,85.06
2022-12-08T19:42:36.084Z,85.12
2022-12-08T19:47:43.482Z,85.21
2022-12-08T19:52:50.595Z,85.18
2022-12-08T19:57:58.548Z,84.98
2022-12-08T20:03:04.301Z,84.86
2022-12-08T20:08:12.094Z,84.90
2022-12-08T20:13:37.062Z,84.97
2022-12-08T20:18:44.813Z,85.03
2022-12-08T20:23:51.909Z,85.19
2022-12-08T20:28:59.047Z,85.10
2022-12-08T20:34:06.340Z,84.91
2022-12-08T20:39:17.967Z,84.86
2022-12-08T20:44:25.827Z,84.82
2022-12-08T20:49:34.887Z,84.72
2022-12-08T20:54:42.873Z,84.89
2022-12-08T20:59:51.753Z,85.06
2022-12-08T21:05:03.331Z,85.16
2022-12-08T21:10:14.201Z,85.01
2022-12-08T21:15:23.372Z,84.89
2022-12-08T21:20:31.826Z,84.90
2022-12-08T21:25:41.019Z,84.75
2022-12-08T21:30:51.347Z,84.75
2022-12-08T21:36:09.579Z,84.83
2022-12-08T21:41:41.293Z,84.83
2022-12-08T21:46:49.660Z,84.89
2022-12-08T21:51:58.238Z,84.82
2022-12-08T21:57:08.995Z,84.81
2022-12-08T22:02:22.877Z,84.75
2022-12-08T22:07:35.310Z,84.71
2022-12-08T22:12:44.033Z,84.86
2022-12-08T22:17:50.384Z,84.95
2022-12-08T22:22:58.694Z,84.96
2022-12-08T22:28:07.201Z,84.99
2022-12-08T22:33:15.392Z,84.87
2022-12-08T22:38:23.075Z,84.82
2022-12-08T22:43:34.696Z,84.76
2022-12-08T22:48:42.363Z,84.82
2022-12-08T22:53:50.107Z,84.92
2022-12-08T22:58:57.187Z,84.92
2022-12-08T23:04:04.704Z,84.89
2022-12-08T23:09:12.142Z,84.88
2022-12-08T23:14:19.522Z,84.79
2022-12-08T23:19:26.843Z,84.85
2022-12-08T23:24:34.135Z,84.79
2022-12-08T23:29:41.735Z,84.94
2022-12-08T23:34:49.462Z,84.94
2022-12-08T23:39:57.066Z,84.84
2022-12-08T23:45:04.897Z,84.87
2022-12-08T23:50:13.247Z,84.76
2022-12-08T23:55:21.150Z,84.73
